createdAt,value
2022-10-21T00:00:33.056Z,70.23
2022-10-21T00:03:26.545Z,70.32
2022-10-21T00:05:58.453Z,70.23
2022-10-21T00:08:30.198Z,70.33
2022-10-21T00:11:04.554Z,70.47
2022-10-21T00:13:40.383Z,70.28
2022-10-21T00:16:14.591Z,70.48
2022-10-21T00:18:47.826Z,70.53
2022-10-21T00:21:20.980Z,70.60
2022-10-21T00:23:54.296Z,70.47
2022-10-21T00:26:25.863Z,70.38
2022-10-21T00:29:00.244Z,70.36
2022-10-21T00:31:32.003Z,70.47
2022-10-21T00:34:05.215Z,70.39
2022-10-21T00:36:36.877Z,70.30
2022-10-21T00:39:10.227Z,70.38
2022-10-21T00:41:41.896Z,70.31
2022-10-21T00:44:17.530Z,70.17
2022-10-21T00:46:53.250Z,70.25
2022-10-21T00:49:30.546Z,70.25
2022-10-21T00:52:07.475Z,70.17
2022-10-21T00:54:41.493Z,70.19
2022-10-21T00:57:13.943Z,69.97
2022-10-21T00:59:52.970Z,70.18
2022-10-21T01:02:24.713Z,70.11
2022-10-21T01:05:02.084Z,70.16
2022-10-21T01:07:36.387Z,70.04
2022-10-21T01:10:17.296Z,70.13
2022-10-21T01:12:59.415Z,69.90
2022-10-21T01:15:42.894Z,69.96
2022-10-21T01:18:23.477Z,69.92
2022-10-21T01:21:18.939Z,69.79
2022-10-21T01:24:24.988Z,69.82
2022-10-21T01:27:21.030Z,69.84
2022-10-21T01:30:13.720Z,69.93
2022-10-21T01:32:59.202Z,69.97
2022-10-21T01:35:39.482Z,70.04
2022-10-21T01:38:19.360Z,70.10
2022-10-21T01:40:57.772Z,70.15
2022-10-21T01:43:42.189Z,70.13
2022-10-21T01:46:17.988Z,70.24
2022-10-21T01:48:56.823Z,70.24
2022-10-21T01:51:29.686Z,70.13
2022-10-21T01:54:06.824Z,70.16
2022-10-21T01:56:40.126Z,69.94
2022-10-21T01:59:15.524Z,70.16
2022-10-21T02:01:50.180Z,70.06
2022-10-21T02:04:24.310Z,70.03
2022-10-21T02:06:56.014Z,70.00
2022-10-21T02:09:28.176Z,69.84
2022-10-21T02:12:03.826Z,70.03
2022-10-21T02:14:38.947Z,70.00
2022-10-21T02:17:15.029Z,69.95
2022-10-21T02:19:47.071Z,69.92
2022-10-21T02:22:22.178Z,69.91
2022-10-21T02:24:58.615Z,69.86
2022-10-21T02:27:30.284Z,69.85
2022-10-21T02:30:03.129Z,69.75
2022-10-21T02:32:40.195Z,69.68
2022-10-21T02:35:25.908Z,69.81
2022-10-21T02:38:05.249Z,69.82
2022-10-21T02:40:46.950Z,69.82
2022-10-21T02:43:22.447Z,69.83
2022-10-21T02:46:00.308Z,69.73
2022-10-21T02:48:35.499Z,69.86
2022-10-21T02:51:10.427Z,69.89
2022-10-21T02:53:42.571Z,69.82
2022-10-21T02:56:14.956Z,69.92
2022-10-21T02:58:46.489Z,70.03
2022-10-21T03:01:21.877Z,70.05
2022-10-21T03:03:53.489Z,69.99
2022-10-21T03:06:25.110Z,69.89
2022-10-21T03:08:56.720Z,69.91
2022-10-21T03:11:31.045Z,69.86
2022-10-21T03:14:02.608Z,69.85
2022-10-21T03:16:34.994Z,69.99
2022-10-21T03:19:06.585Z,70.01
2022-10-21T03:21:39.871Z,69.91
2022-10-21T03:24:19.799Z,70.03
2022-10-21T03:26:57.005Z,69.97
2022-10-21T03:29:28.575Z,70.07
2022-10-21T03:32:02.691Z,70.13
2022-10-21T03:34:34.223Z,70.07
2022-10-21T03:37:06.591Z,70.07
2022-10-21T03:39:38.777Z,70.06
2022-10-21T03:42:12.047Z,70.02
2022-10-21T03:44:43.657Z,69.91
2022-10-21T03:47:15.258Z,70.00
2022-10-21T03:49:46.889Z,70.02
2022-10-21T03:52:20.083Z,69.82
2022-10-21T03:54:51.617Z,69.84
2022-10-21T03:57:23.230Z,69.85
2022-10-21T03:59:54.776Z,69.95
2022-10-21T04:02:27.646Z,69.90
2022-10-21T04:04:59.275Z,70.03
2022-10-21T04:07:30.847Z,69.96
2022-10-21T04:10:02.453Z,69.74
2022-10-21T04:12:34.176Z,69.90
2022-10-21T04:15:07.192Z,69.86
2022-10-21T04:17:38.788Z,69.87
2022-10-21T04:20:18.971Z,69.81
2022-10-21T04:22:49.025Z,69.99
2022-10-21T04:25:19.286Z,69.99
2022-10-21T04:27:49.346Z,70.04
2022-10-21T04:30:19.523Z,69.96
2022-10-21T04:32:57.316Z,70.06
2022-10-21T04:35:27.356Z,70.10
2022-10-21T04:37:57.480Z,69.99
2022-10-21T04:40:27.704Z,69.97
2022-10-21T04:42:58.640Z,70.10
2022-10-21T04:45:28.842Z,70.12
2022-10-21T04:47:59.066Z,70.16
2022-10-21T04:50:29.130Z,70.26
2022-10-21T04:52:59.988Z,70.17
2022-10-21T04:55:30.093Z,70.34
2022-10-21T04:58:00.158Z,70.31
2022-10-21T05:00:34.637Z,70.65
2022-10-21T05:03:05.202Z,70.77
2022-10-21T05:05:35.333Z,71.04
2022-10-21T05:08:10.670Z,71.29
2022-10-21T05:10:41.996Z,71.35
2022-10-21T05:13:13.194Z,71.31
2022-10-21T05:15:43.220Z,71.34
2022-10-21T05:18:42.399Z,71.28
2022-10-21T05:21:12.612Z,71.26
2022-10-21T05:23:43.021Z,71.06
2022-10-21T05:26:13.144Z,71.39
2022-10-21T05:28:43.238Z,71.23
2022-10-21T05:31:13.261Z,71.39
2022-10-21T05:33:44.153Z,71.43
2022-10-21T05:36:14.237Z,71.32
2022-10-21T05:38:44.302Z,71.56
2022-10-21T05:41:14.476Z,71.20
2022-10-21T05:43:44.571Z,71.33
2022-10-21T05:46:14.582Z,71.25
2022-10-21T05:48:44.817Z,71.20
2022-10-21T05:51:14.822Z,71.16
2022-10-21T05:53:44.968Z,71.12
2022-10-21T05:56:14.982Z,71.03
2022-10-21T05:58:45.049Z,71.04
2022-10-21T06:01:15.195Z,71.20
2022-10-21T06:03:45.330Z,71.11
2022-10-21T06:06:15.323Z,71.00
2022-10-21T06:08:48.703Z,71.05
2022-10-21T06:11:19.569Z,71.02
2022-10-21T06:13:50.713Z,70.99
2022-10-21T06:16:20.784Z,70.90
2022-10-21T06:18:50.881Z,70.98
2022-10-21T06:21:27.430Z,70.96
2022-10-21T06:23:58.596Z,70.93
2022-10-21T06:26:30.955Z,70.85
2022-10-21T06:29:03.363Z,70.99
2022-10-21T06:31:33.395Z,71.03
2022-10-21T06:34:03.501Z,71.05
2022-10-21T06:36:33.524Z,71.00
2022-10-21T06:39:03.578Z,71.04
2022-10-21T06:41:33.920Z,70.85
2022-10-21T06:44:04.808Z,70.77
2022-10-21T06:46:34.891Z,70.75
2022-10-21T06:49:05.052Z,70.93
2022-10-21T06:51:35.158Z,70.86
2022-10-21T06:54:05.233Z,70.63
2022-10-21T06:56:35.234Z,70.66
2022-10-21T06:59:05.315Z,70.40
2022-10-21T07:01:48.450Z,70.62
2022-10-21T07:04:26.825Z,70.55
2022-10-21T07:06:56.858Z,70.46
2022-10-21T07:09:26.986Z,70.51
2022-10-21T07:11:57.110Z,70.64
2022-10-21T07:14:28.052Z,70.61
2022-10-21T07:16:58.094Z,70.70
2022-10-21T07:19:28.683Z,70.52
2022-10-21T07:21:58.726Z,70.36
2022-10-21T07:24:29.185Z,70.51
2022-10-21T07:26:59.241Z,70.74
2022-10-21T07:29:29.540Z,70.85
2022-10-21T07:31:59.914Z,70.71
2022-10-21T07:34:30.037Z,70.84
2022-10-21T07:37:00.193Z,70.79
2022-10-21T07:39:30.310Z,70.61
2022-10-21T07:42:00.439Z,70.65
2022-10-21T07:44:30.555Z,70.46
2022-10-21T07:47:00.604Z,70.33
2022-10-21T07:49:30.759Z,70.23
2022-10-21T07:52:00.839Z,70.36
2022-10-21T07:54:31.034Z,70.13
2022-10-21T07:57:01.031Z,69.90
2022-10-21T07:59:31.930Z,69.79
2022-10-21T08:02:02.141Z,69.61
2022-10-21T08:04:33.502Z,69.39
2022-10-21T08:07:03.514Z,69.28
2022-10-21T08:09:33.618Z,69.41
2022-10-21T08:12:03.707Z,69.34
2022-10-21T08:14:34.615Z,69.22
2022-10-21T08:17:04.623Z,69.17
2022-10-21T08:19:34.771Z,69.09
2022-10-21T08:22:04.932Z,68.97
2022-10-21T08:24:39.853Z,68.86
2022-10-21T08:27:12.344Z,68.84
2022-10-21T08:29:42.477Z,69.03
2022-10-21T08:32:12.526Z,68.83
2022-10-21T08:34:44.463Z,68.70
2022-10-21T08:37:14.529Z,68.84
2022-10-21T08:39:44.597Z,68.22
2022-10-21T08:42:17.410Z,68.14
2022-10-21T08:44:50.344Z,67.70
2022-10-21T08:47:23.983Z,67.32
2022-10-21T08:49:57.488Z,67.10
2022-10-21T08:52:32.252Z,67.05
2022-10-21T08:55:03.757Z,66.97
2022-10-21T08:57:36.272Z,66.55
2022-10-21T09:00:21.332Z,65.97
2022-10-21T09:03:05.083Z,66.08
2022-10-21T09:05:51.078Z,65.90
2022-10-21T09:08:26.291Z,66.03
2022-10-21T09:11:04.309Z,66.28
2022-10-21T09:13:46.770Z,65.76
2022-10-21T09:16:20.450Z,65.73
2022-10-21T09:18:56.974Z,65.60
2022-10-21T09:21:33.545Z,65.88
2022-10-21T09:24:07.305Z,65.76
2022-10-21T09:26:41.823Z,64.43
2022-10-21T09:29:21.038Z,63.70
2022-10-21T09:31:56.092Z,64.44
2022-10-21T09:34:36.301Z,63.90
2022-10-21T09:37:09.400Z,64.10
2022-10-21T09:39:42.172Z,63.75
2022-10-21T09:42:35.266Z,64.14
2022-10-21T09:45:04.934Z,63.29
2022-10-21T09:47:34.996Z,63.59
2022-10-21T09:50:11.589Z,63.47
2022-10-21T09:52:46.737Z,62.67
2022-10-21T09:55:17.498Z,63.03
2022-10-21T09:57:50.455Z,63.18
2022-10-21T10:00:20.775Z,62.87
2022-10-21T10:02:51.875Z,62.82
2022-10-21T10:05:38.457Z,62.64
2022-10-21T10:08:22.956Z,62.60
2022-10-21T10:10:53.001Z,63.00
2022-10-21T10:13:24.327Z,62.77
2022-10-21T10:15:54.366Z,62.70
2022-10-21T10:18:24.975Z,62.37
2022-10-21T10:21:06.681Z,62.03
2022-10-21T10:23:44.587Z,61.37
2022-10-21T10:26:19.544Z,60.59
2022-10-21T10:28:54.923Z,60.70
2022-10-21T10:31:30.022Z,60.53
2022-10-21T10:34:02.328Z,60.46
2022-10-21T10:36:33.606Z,60.33
2022-10-21T10:39:04.829Z,60.60
2022-10-21T10:41:36.714Z,60.60
2022-10-21T10:44:12.826Z,60.91
2022-10-21T10:46:44.020Z,60.30
2022-10-21T10:49:22.713Z,60.59
2022-10-21T10:52:06.556Z,60.49
2022-10-21T10:54:37.101Z,60.40
2022-10-21T10:57:11.788Z,60.28
2022-10-21T10:59:43.454Z,59.79
2022-10-21T11:02:35.099Z,60.16
2022-10-21T11:05:22.189Z,60.06
2022-10-21T11:07:53.265Z,60.08
2022-10-21T11:10:37.462Z,60.24
2022-10-21T11:13:12.910Z,59.90
2022-10-21T11:15:48.497Z,59.84
2022-10-21T11:18:25.157Z,59.45
2022-10-21T11:21:03.371Z,59.17
2022-10-21T11:23:44.154Z,59.34
2022-10-21T11:26:20.267Z,59.07
2022-10-21T11:28:54.743Z,59.48
2022-10-21T11:31:30.157Z,59.55
2022-10-21T11:34:04.261Z,59.56
2022-10-21T11:36:37.464Z,59.16
2022-10-21T11:39:26.696Z,59.07
2022-10-21T11:42:01.383Z,58.29
2022-10-21T11:44:46.801Z,58.50
2022-10-21T11:47:20.004Z,58.43
2022-10-21T11:49:57.323Z,58.71
2022-10-21T11:52:34.665Z,58.35
2022-10-21T11:55:18.632Z,57.97
2022-10-21T11:57:52.820Z,57.40
2022-10-21T12:00:28.843Z,57.75
2022-10-21T12:03:08.797Z,57.16
2022-10-21T12:05:47.908Z,57.48
2022-10-21T12:08:21.706Z,57.04
2022-10-21T12:10:54.590Z,57.50
2022-10-21T12:13:28.487Z,57.49
2022-10-21T12:16:00.286Z,57.22
2022-10-21T12:18:31.602Z,56.84
2022-10-21T12:21:01.924Z,56.96
2022-10-21T12:23:32.668Z,57.56
2022-10-21T12:26:07.813Z,57.91
2022-10-21T12:28:39.943Z,57.16
2022-10-21T12:31:19.076Z,56.94
2022-10-21T12:33:50.363Z,57.16
2022-10-21T12:36:37.884Z,57.19
2022-10-21T12:39:12.774Z,57.07
2022-10-21T12:41:44.431Z,57.16
2022-10-21T12:44:22.462Z,57.33
2022-10-21T12:46:53.546Z,57.12
2022-10-21T12:49:28.572Z,57.22
2022-10-21T12:52:04.673Z,56.41
2022-10-21T12:54:40.464Z,56.66
2022-10-21T12:57:11.726Z,56.52
2022-10-21T12:59:43.076Z,56.47
2022-10-21T13:02:27.277Z,56.52
2022-10-21T13:05:00.260Z,56.13
2022-10-21T13:07:32.155Z,56.18
2022-10-21T13:10:33.375Z,56.39
2022-10-21T13:13:20.977Z,56.22
2022-10-21T13:15:51.333Z,56.65
2022-10-21T13:18:34.882Z,56.67
2022-10-21T13:21:05.077Z,56.96
2022-10-21T13:23:39.112Z,57.27
2022-10-21T13:26:15.476Z,57.03
2022-10-21T13:28:54.830Z,57.48
2022-10-21T13:31:25.740Z,57.86
2022-10-21T13:33:56.690Z,58.00
2022-10-21T13:39:25.594Z,58.42
2022-10-21T13:42:03.407Z,58.68
2022-10-21T13:44:35.133Z,58.53
2022-10-21T13:47:21.832Z,58.79
2022-10-21T13:49:52.802Z,58.80
2022-10-21T13:52:22.884Z,59.01
2022-10-21T13:54:58.622Z,59.20
2022-10-21T13:57:32.640Z,59.19
2022-10-21T14:00:03.386Z,59.50
2022-10-21T14:02:47.425Z,59.63
2022-10-21T14:05:29.127Z,59.56
2022-10-21T14:08:00.441Z,59.72
2022-10-21T14:10:31.363Z,59.97
2022-10-21T14:13:02.368Z,59.95
2022-10-21T14:15:36.525Z,60.13
2022-10-21T14:18:07.214Z,60.08
2022-10-21T14:20:39.013Z,60.29
2022-10-21T14:23:15.493Z,60.35
2022-10-21T14:25:45.705Z,60.50
2022-10-21T14:28:17.009Z,60.85
2022-10-21T14:30:47.131Z,60.85
2022-10-21T14:33:20.624Z,61.09
2022-10-21T14:38:55.251Z,61.33
2022-10-21T14:41:26.947Z,61.32
2022-10-21T14:44:00.248Z,61.51
2022-10-21T14:46:31.405Z,61.87
2022-10-21T14:49:03.513Z,61.84
2022-10-21T14:51:38.123Z,62.07
2022-10-21T14:54:14.718Z,62.09
2022-10-21T14:56:46.830Z,62.23
2022-10-21T14:59:21.055Z,62.37
2022-10-21T15:01:51.282Z,62.48
2022-10-21T15:04:39.623Z,62.67
2022-10-21T15:07:16.722Z,62.79
2022-10-21T15:09:59.979Z,63.03
2022-10-21T15:12:33.232Z,62.98
2022-10-21T15:15:05.082Z,63.09
2022-10-21T15:17:35.220Z,63.45
2022-10-21T15:20:13.963Z,63.60
2022-10-21T15:22:44.349Z,63.80
2022-10-21T15:25:19.819Z,63.91
2022-10-21T15:27:50.059Z,63.94
2022-10-21T15:30:26.184Z,64.02
2022-10-21T15:32:56.280Z,64.10
2022-10-21T15:35:26.477Z,64.27
2022-10-21T15:37:56.924Z,64.26
2022-10-21T15:40:30.798Z,64.51
2022-10-21T15:43:00.969Z,64.51
2022-10-21T15:45:31.159Z,64.62
2022-10-21T15:48:02.997Z,64.88
2022-10-21T15:50:39.266Z,65.02
2022-10-21T15:53:09.457Z,65.01
2022-10-21T15:55:39.636Z,65.19
2022-10-21T15:58:11.193Z,65.18
2022-10-21T16:00:43.075Z,65.39
2022-10-21T16:03:13.271Z,65.61
2022-10-21T16:05:43.463Z,65.60
2022-10-21T16:08:14.181Z,65.80
2022-10-21T16:10:49.565Z,65.77
2022-10-21T16:13:19.703Z,65.96
2022-10-21T16:15:49.898Z,66.17
2022-10-21T16:18:20.357Z,66.21
2022-10-21T16:20:52.469Z,66.24
2022-10-21T16:23:22.625Z,66.24
2022-10-21T16:25:52.853Z,66.37
2022-10-21T16:28:22.997Z,66.42
2022-10-21T16:30:54.760Z,66.58
2022-10-21T16:33:24.973Z,66.59
2022-10-21T16:35:57.133Z,66.57
2022-10-21T16:38:27.499Z,66.67
2022-10-21T16:40:59.298Z,66.61
2022-10-21T16:43:29.503Z,66.52
2022-10-21T16:45:59.737Z,66.68
2022-10-21T16:48:29.922Z,66.68
2022-10-21T16:51:05.736Z,66.64
2022-10-21T16:53:35.952Z,66.81
2022-10-21T16:56:06.324Z,66.80
2022-10-21T16:58:36.624Z,66.88
2022-10-21T17:01:09.871Z,66.97
2022-10-21T17:03:46.903Z,67.32
2022-10-21T17:06:17.864Z,67.15
2022-10-21T17:08:48.673Z,67.28
2022-10-21T17:11:21.264Z,67.31
2022-10-21T17:13:51.437Z,67.43
2022-10-21T17:16:21.801Z,67.50
2022-10-21T17:18:51.962Z,67.48
2022-10-21T17:21:24.633Z,67.64
2022-10-21T17:23:55.920Z,67.67
2022-10-21T17:26:26.497Z,67.63
2022-10-21T17:28:57.154Z,67.95
2022-10-21T17:31:28.996Z,67.90
2022-10-21T17:34:00.193Z,68.52
2022-10-21T17:36:30.466Z,68.18
2022-10-21T17:39:00.620Z,68.41
2022-10-21T17:41:31.605Z,68.51
2022-10-21T17:44:03.528Z,68.73
2022-10-21T17:46:33.756Z,68.86
2022-10-21T17:49:04.079Z,69.11
2022-10-21T17:51:34.828Z,69.42
2022-10-21T17:54:05.967Z,69.47
2022-10-21T17:56:36.452Z,69.58
2022-10-21T17:59:06.978Z,69.80
2022-10-21T18:01:38.300Z,70.07
2022-10-21T18:04:08.670Z,70.64
2022-10-21T18:06:40.208Z,70.74
2022-10-21T18:09:10.486Z,70.87
2022-10-21T18:11:40.778Z,71.39
2022-10-21T18:14:11.165Z,71.44
2022-10-21T18:16:41.635Z,71.63
2022-10-21T18:19:12.285Z,71.93
2022-10-21T18:21:42.755Z,72.56
2022-10-21T18:24:13.179Z,72.56
2022-10-21T18:26:43.465Z,72.43
2022-10-21T18:29:14.242Z,72.99
2022-10-21T18:31:44.431Z,72.74
2022-10-21T18:34:15.581Z,73.00
2022-10-21T18:36:45.882Z,73.04
2022-10-21T18:39:16.527Z,73.21
2022-10-21T18:41:47.717Z,73.33
2022-10-21T18:44:18.309Z,73.44
2022-10-21T18:46:50.210Z,73.49
2022-10-21T18:49:23.277Z,73.50
2022-10-21T18:51:54.503Z,73.63
2022-10-21T18:54:24.808Z,73.65
2022-10-21T18:56:55.038Z,74.02
2022-10-21T18:59:25.632Z,73.98
2022-10-21T19:01:59.337Z,74.05
2022-10-21T19:04:29.798Z,74.41
2022-10-21T19:07:00.923Z,74.28
2022-10-21T19:09:31.067Z,74.44
2022-10-21T19:12:05.234Z,74.78
2022-10-21T19:14:35.495Z,75.03
2022-10-21T19:17:06.172Z,74.98
2022-10-21T19:19:39.390Z,75.17
2022-10-21T19:22:09.842Z,75.07
2022-10-21T19:24:40.285Z,75.32
2022-10-21T19:27:12.908Z,75.71
2022-10-21T19:29:43.667Z,75.45
2022-10-21T19:32:16.834Z,75.75
2022-10-21T19:34:47.006Z,76.05
2022-10-21T19:37:18.486Z,76.21
2022-10-21T19:39:48.703Z,76.18
2022-10-21T19:42:20.555Z,75.96
2022-10-21T19:44:50.876Z,76.00
2022-10-21T19:47:21.317Z,75.94
2022-10-21T19:49:51.540Z,76.11
2022-10-21T19:52:23.229Z,76.72
2022-10-21T19:54:53.382Z,76.50
2022-10-21T19:57:24.105Z,76.65
2022-10-21T19:59:54.446Z,76.50
2022-10-21T20:02:24.778Z,76.60
2022-10-21T20:04:54.964Z,76.63
2022-10-21T20:07:25.203Z,76.75
2022-10-21T20:09:55.355Z,76.76
2022-10-21T20:12:25.578Z,76.94
2022-10-21T20:14:57.916Z,77.05
2022-10-21T20:17:28.093Z,77.06
2022-10-21T20:19:58.438Z,77.00
2022-10-21T20:22:29.813Z,77.14
2022-10-21T20:25:00.032Z,77.19
2022-10-21T20:27:30.242Z,77.55
2022-10-21T20:30:00.442Z,77.40
2022-10-21T20:32:32.013Z,77.97
2022-10-21T20:35:02.224Z,78.58
2022-10-21T20:37:32.467Z,78.38
2022-10-21T20:40:02.684Z,78.16
2022-10-21T20:42:32.816Z,78.57
2022-10-21T20:45:03.082Z,78.27
2022-10-21T20:47:33.253Z,78.71
2022-10-21T20:50:03.430Z,79.01
2022-10-21T20:52:34.271Z,79.11
2022-10-21T20:55:04.501Z,79.25
2022-10-21T20:57:35.477Z,79.42
2022-10-21T21:00:14.784Z,79.27
2022-10-21T21:02:45.710Z,79.59
2022-10-21T21:05:16.895Z,79.48
2022-10-21T21:07:46.933Z,79.38
2022-10-21T21:10:20.722Z,80.58
2022-10-21T21:12:50.759Z,79.78
2022-10-21T21:15:20.917Z,79.85
2022-10-21T21:17:51.083Z,79.40
2022-10-21T21:20:21.157Z,79.72
2022-10-21T21:22:51.219Z,79.46
2022-10-21T21:25:21.437Z,79.44
2022-10-21T21:27:51.602Z,79.62
2022-10-21T21:30:25.027Z,79.37
2022-10-21T21:32:55.040Z,79.49
2022-10-21T21:35:25.123Z,79.28
2022-10-21T21:37:55.441Z,79.29
2022-10-21T21:40:25.514Z,79.70
2022-10-21T21:42:55.575Z,79.64
2022-10-21T21:45:25.648Z,79.70
2022-10-21T21:47:55.727Z,79.56
2022-10-21T21:50:25.778Z,79.75
2022-10-21T21:52:56.795Z,79.71
2022-10-21T21:55:26.976Z,79.53
2022-10-21T21:57:57.800Z,79.52
2022-10-21T22:00:27.898Z,79.59
2022-10-21T22:02:57.992Z,79.53
2022-10-21T22:05:31.797Z,79.59
2022-10-21T22:08:02.925Z,79.47
2022-10-21T22:10:33.106Z,79.51
2022-10-21T22:13:03.977Z,79.87
2022-10-21T22:15:47.783Z,79.74
2022-10-21T22:18:18.394Z,79.46
2022-10-21T22:20:48.529Z,79.53
2022-10-21T22:23:20.058Z,79.47
2022-10-21T22:25:50.231Z,79.41
2022-10-21T22:28:20.478Z,79.38
2022-10-21T22:30:56.212Z,79.19
2022-10-21T22:33:26.308Z,79.23
2022-10-21T22:35:56.367Z,79.27
2022-10-21T22:38:26.469Z,79.26
2022-10-21T22:40:56.894Z,79.27
2022-10-21T22:43:27.514Z,79.40
2022-10-21T22:46:09.580Z,79.30
2022-10-21T22:48:45.398Z,79.19
2022-10-21T22:51:15.380Z,79.16
2022-10-21T22:53:48.401Z,79.18
2022-10-21T22:56:20.730Z,79.21
2022-10-21T22:58:50.912Z,79.20
2022-10-21T23:01:21.009Z,79.18
2022-10-21T23:03:52.708Z,79.19
2022-10-21T23:06:22.736Z,79.24
2022-10-21T23:08:52.820Z,79.24
2022-10-21T23:11:22.861Z,79.19
2022-10-21T23:14:02.634Z,79.15
2022-10-21T23:16:33.908Z,79.19
2022-10-21T23:19:04.061Z,79.15
2022-10-21T23:21:34.464Z,79.22
2022-10-21T23:24:04.900Z,79.16
2022-10-21T23:26:35.728Z,79.26
2022-10-21T23:29:05.826Z,79.14
2022-10-21T23:31:35.917Z,79.27
2022-10-21T23:34:06.172Z,79.26
2022-10-21T23:36:36.361Z,79.23
2022-10-21T23:39:06.471Z,79.25
2022-10-21T23:41:36.568Z,79.37
2022-10-21T23:44:07.486Z,79.30
2022-10-21T23:46:38.114Z,79.35
2022-10-21T23:49:08.210Z,79.47
2022-10-21T23:51:38.488Z,79.43
2022-10-21T23:54:09.434Z,79.37
2022-10-21T23:56:39.669Z,79.54
2022-10-21T23:59:10.611Z,79.47
